createdAt,value
2018-04-22T00:00:27.004Z,78.10
2018-04-22T00:02:54.145Z,78.20
2018-04-22T00:05:20.494Z,78.10
2018-04-22T00:07:46.808Z,78.00
2018-04-22T00:10:13.125Z,78.30
2018-04-22T00:12:40.142Z,79.10
2018-04-22T00:15:06.450Z,79.00
2018-04-22T00:17:32.761Z,79.40
2018-04-22T00:19:59.829Z,81.10
2018-04-22T00:22:26.841Z,81.20
2018-04-22T00:24:53.144Z,81.10
2018-04-22T00:27:19.425Z,81.80
2018-04-22T00:29:45.801Z,80.90
2018-04-22T00:32:12.834Z,80.70
2018-04-22T00:34:39.761Z,80.60
2018-04-22T00:37:06.064Z,80.60
2018-04-22T00:39:33.076Z,80.30
2018-04-22T00:41:59.399Z,80.30
2018-04-22T00:44:25.713Z,80.60
2018-04-22T00:46:52.789Z,80.70
2018-04-22T00:49:19.064Z,80.60
2018-04-22T00:51:45.397Z,80.70
2018-04-22T00:54:19.590Z,80.70
2018-04-22T00:56:45.882Z,80.90
2018-04-22T00:59:12.237Z,80.40
2018-04-22T01:01:38.563Z,79.30
2018-04-22T01:04:04.906Z,79.50
2018-04-22T01:06:31.211Z,80.20
2018-04-22T01:08:58.259Z,82.20
2018-04-22T01:11:24.543Z,82.20
2018-04-22T01:13:50.861Z,82.10
2018-04-22T01:16:17.918Z,81.50
2018-04-22T01:18:44.984Z,81.70
2018-04-22T01:21:11.257Z,81.60
2018-04-22T01:23:37.527Z,82.00
2018-04-22T01:26:03.856Z,82.00
2018-04-22T01:28:30.190Z,82.30
2018-04-22T01:30:56.470Z,82.70
2018-04-22T01:33:23.571Z,82.10
2018-04-22T01:35:49.875Z,82.20
2018-04-22T01:38:16.244Z,81.80
2018-04-22T01:40:43.333Z,79.70
2018-04-22T01:43:09.673Z,79.70
2018-04-22T01:45:35.938Z,80.10
2018-04-22T01:48:02.300Z,80.60
2018-04-22T01:50:28.609Z,80.90
2018-04-22T01:52:54.921Z,80.80
2018-04-22T01:55:21.909Z,80.80
2018-04-22T01:57:48.251Z,80.80
2018-04-22T02:00:14.614Z,81.60
2018-04-22T02:02:40.856Z,81.90
2018-04-22T02:05:07.215Z,82.80
2018-04-22T02:07:33.520Z,83.70
2018-04-22T02:09:59.819Z,83.90
2018-04-22T02:12:26.125Z,83.30
2018-04-22T02:14:52.392Z,83.80
2018-04-22T02:17:19.743Z,82.30
2018-04-22T02:19:46.052Z,81.90
2018-04-22T02:22:12.496Z,81.60
2018-04-22T02:24:38.848Z,81.70
2018-04-22T02:27:05.139Z,82.00
2018-04-22T02:29:31.394Z,81.90
2018-04-22T02:31:58.396Z,82.00
2018-04-22T02:34:24.817Z,81.90
2018-04-22T02:36:51.185Z,82.00
2018-04-22T02:39:17.484Z,82.50
2018-04-22T02:41:43.850Z,84.10
2018-04-22T02:44:10.263Z,84.80
2018-04-22T02:46:36.525Z,84.30
2018-04-22T02:49:03.562Z,83.50
2018-04-22T02:51:29.978Z,83.30
2018-04-22T02:53:56.267Z,83.10
2018-04-22T02:56:22.643Z,83.60
2018-04-22T02:58:49.005Z,83.90
2018-04-22T03:01:15.319Z,83.50
2018-04-22T03:03:41.651Z,83.40
2018-04-22T03:06:08.024Z,83.40
2018-04-22T03:08:34.310Z,83.50
2018-04-22T03:11:01.450Z,84.20
2018-04-22T03:13:27.785Z,84.20
2018-04-22T03:15:54.118Z,84.60
2018-04-22T03:18:20.486Z,84.40
2018-04-22T03:20:46.756Z,83.00
2018-04-22T03:23:13.815Z,83.70
2018-04-22T03:25:40.876Z,82.40
2018-04-22T03:28:07.953Z,82.50
2018-04-22T03:30:34.378Z,82.50
2018-04-22T03:33:01.474Z,82.10
2018-04-22T03:35:27.790Z,82.00
2018-04-22T03:37:54.854Z,84.10
2018-04-22T03:40:21.317Z,84.20
2018-04-22T03:42:47.626Z,84.20
2018-04-22T03:45:14.719Z,84.50
2018-04-22T03:47:41.098Z,84.80
2018-04-22T03:50:07.431Z,84.50
2018-04-22T03:52:33.743Z,84.20
2018-04-22T03:55:00.105Z,84.20
2018-04-22T03:57:26.419Z,85.00
2018-04-22T03:59:53.421Z,83.50
2018-04-22T04:02:19.776Z,83.50
2018-04-22T04:04:46.081Z,82.90
2018-04-22T04:07:12.506Z,83.20
2018-04-22T04:09:39.600Z,83.70
2018-04-22T04:12:05.982Z,83.60
2018-04-22T04:14:32.300Z,83.60
2018-04-22T04:16:58.654Z,84.00
2018-04-22T04:19:37.192Z,84.20
2018-04-22T04:22:15.756Z,84.30
2018-04-22T04:24:55.973Z,84.20
2018-04-22T04:30:30.033Z,83.00
2018-04-22T04:32:56.361Z,83.10
2018-04-22T04:35:22.777Z,83.20
2018-04-22T04:37:49.834Z,83.40
2018-04-22T04:40:16.042Z,83.40
2018-04-22T04:42:42.241Z,82.60
2018-04-22T04:45:08.432Z,84.10
2018-04-22T04:47:34.653Z,82.50
2018-04-22T04:50:00.878Z,81.50
2018-04-22T04:52:27.065Z,82.00
2018-04-22T04:54:53.359Z,81.90
2018-04-22T04:57:19.550Z,81.30
2018-04-22T04:59:45.797Z,81.50
2018-04-22T05:02:12.156Z,81.90
2018-04-22T05:04:39.090Z,82.10
2018-04-22T05:07:05.277Z,82.00
2018-04-22T05:09:31.480Z,81.70
2018-04-22T05:11:57.680Z,81.70
2018-04-22T05:14:24.055Z,81.80
2018-04-22T05:16:50.108Z,82.80
2018-04-22T05:19:16.410Z,81.50
2018-04-22T05:21:42.672Z,80.80
2018-04-22T05:24:08.859Z,80.90
2018-04-22T05:26:35.111Z,81.00
2018-04-22T05:29:01.348Z,80.80
2018-04-22T05:31:27.562Z,79.60
2018-04-22T05:33:54.572Z,79.90
2018-04-22T05:36:20.875Z,79.70
2018-04-22T05:38:47.863Z,79.60
2018-04-22T05:41:14.100Z,79.70
2018-04-22T05:43:40.296Z,80.00
2018-04-22T05:46:07.246Z,79.30
2018-04-22T05:48:33.504Z,80.00
2018-04-22T05:51:00.539Z,79.00
2018-04-22T05:53:26.707Z,78.80
2018-04-22T05:55:53.730Z,78.30
2018-04-22T05:58:19.963Z,78.20
2018-04-22T06:00:46.200Z,78.40
2018-04-22T06:03:12.442Z,78.20
2018-04-22T06:05:38.650Z,78.10
2018-04-22T06:08:04.965Z,78.10
2018-04-22T06:10:31.160Z,78.00
2018-04-22T06:12:57.334Z,77.60
2018-04-22T06:15:23.567Z,77.00
2018-04-22T06:17:49.753Z,75.70
2018-04-22T06:20:15.982Z,76.10
2018-04-22T06:22:42.243Z,76.20
2018-04-22T06:25:08.466Z,75.90
2018-04-22T06:27:34.766Z,74.90
2018-04-22T06:30:00.991Z,71.80
2018-04-22T06:32:27.193Z,68.10
2018-04-22T06:34:53.408Z,64.40
2018-04-22T06:37:20.352Z,57.70
2018-04-22T06:39:46.705Z,57.60
2018-04-22T06:42:13.719Z,52.40
2018-04-22T06:44:39.892Z,52.30
2018-04-22T06:47:06.110Z,52.50
2018-04-22T06:49:32.299Z,51.20
2018-04-22T06:51:58.525Z,51.00
2018-04-22T06:54:25.529Z,50.40
2018-04-22T06:56:51.788Z,50.40
2018-04-22T06:59:18.003Z,50.50
2018-04-22T07:01:44.204Z,49.70
2018-04-22T07:04:11.187Z,49.20
2018-04-22T07:06:37.395Z,49.20
2018-04-22T07:09:04.571Z,49.00
2018-04-22T07:11:31.509Z,48.20
2018-04-22T07:13:58.469Z,48.50
2018-04-22T07:16:24.707Z,48.40
2018-04-22T07:18:50.902Z,47.90
2018-04-22T07:21:17.077Z,48.30
2018-04-22T07:23:43.272Z,48.60
2018-04-22T07:26:09.453Z,48.20
2018-04-22T07:28:35.671Z,47.20
2018-04-22T07:31:01.879Z,47.40
2018-04-22T07:33:28.116Z,47.80
2018-04-22T07:35:55.080Z,46.30
2018-04-22T07:38:21.258Z,46.80
2018-04-22T07:40:47.487Z,46.30
2018-04-22T07:43:13.835Z,46.10
2018-04-22T07:45:40.087Z,46.20
2018-04-22T07:48:06.417Z,46.20
2018-04-22T07:50:32.706Z,46.80
2018-04-22T07:52:59.799Z,47.30
2018-04-22T07:55:26.171Z,47.20
2018-04-22T07:57:52.464Z,47.30
2018-04-22T08:00:19.519Z,47.50
2018-04-22T08:02:46.619Z,47.60
2018-04-22T08:05:12.966Z,47.60
2018-04-22T08:07:39.274Z,48.10
2018-04-22T08:10:06.441Z,48.30
2018-04-22T08:12:32.783Z,48.80
2018-04-22T08:14:59.831Z,48.90
2018-04-22T08:17:26.879Z,48.60
2018-04-22T08:19:53.181Z,48.60
2018-04-22T08:22:19.638Z,49.30
2018-04-22T08:24:45.975Z,49.30
2018-04-22T08:27:12.333Z,49.80
2018-04-22T08:29:38.647Z,49.40
2018-04-22T08:32:04.959Z,49.00
2018-04-22T08:34:32.086Z,48.90
2018-04-22T08:36:58.387Z,48.90
2018-04-22T08:39:25.678Z,48.40
2018-04-22T08:41:52.723Z,48.50
2018-04-22T08:44:19.034Z,48.50
2018-04-22T08:46:45.382Z,47.70
2018-04-22T08:49:11.737Z,47.60
2018-04-22T08:51:38.157Z,47.70
2018-04-22T08:54:04.513Z,48.30
2018-04-22T08:56:31.657Z,45.90
2018-04-22T08:58:58.026Z,45.90
2018-04-22T09:01:24.319Z,45.50
2018-04-22T09:03:50.633Z,44.90
2018-04-22T09:06:16.965Z,44.10
2018-04-22T09:08:43.329Z,43.20
2018-04-22T09:11:09.672Z,41.10
2018-04-22T09:13:36.202Z,41.80
2018-04-22T09:16:02.534Z,38.40
2018-04-22T09:18:28.895Z,38.30
2018-04-22T09:20:55.298Z,41.10
2018-04-22T09:23:21.762Z,41.20
2018-04-22T09:25:48.106Z,39.00
2018-04-22T09:28:14.443Z,40.30
2018-04-22T09:30:40.756Z,41.00
2018-04-22T09:33:07.101Z,39.80
2018-04-22T09:35:33.453Z,41.10
2018-04-22T09:37:59.826Z,38.20
2018-04-22T09:40:26.183Z,38.80
2018-04-22T09:42:52.480Z,39.20
2018-04-22T09:45:18.857Z,39.10
2018-04-22T09:47:45.200Z,39.10
2018-04-22T09:50:11.524Z,37.90
2018-04-22T09:52:38.585Z,39.20
2018-04-22T09:55:04.866Z,39.20
2018-04-22T09:57:31.196Z,38.60
2018-04-22T09:59:57.548Z,37.80
2018-04-22T10:02:29.846Z,39.40
2018-04-22T10:04:56.242Z,39.50
2018-04-22T10:07:22.564Z,39.60
2018-04-22T10:09:48.913Z,38.00
2018-04-22T10:12:15.237Z,38.20
2018-04-22T10:14:41.630Z,37.70
2018-04-22T10:17:07.951Z,37.20
2018-04-22T10:19:34.229Z,36.70
2018-04-22T10:22:00.642Z,37.20
2018-04-22T10:24:27.648Z,35.60
2018-04-22T10:26:53.926Z,35.60
2018-04-22T10:29:20.252Z,35.60
2018-04-22T10:31:46.926Z,36.50
2018-04-22T10:34:14.065Z,36.30
2018-04-22T10:36:40.373Z,36.20
2018-04-22T10:39:06.683Z,35.30
2018-04-22T10:41:33.769Z,34.80
2018-04-22T10:44:00.107Z,34.50
2018-04-22T10:46:26.440Z,34.20
2018-04-22T10:48:53.477Z,33.70
2018-04-22T10:51:19.803Z,33.70
2018-04-22T10:53:46.142Z,34.20
2018-04-22T10:56:12.442Z,34.50
2018-04-22T10:58:38.764Z,34.90
2018-04-22T11:01:05.749Z,33.50
2018-04-22T11:03:32.021Z,33.50
2018-04-22T11:05:58.340Z,33.20
2018-04-22T11:08:24.632Z,33.50
2018-04-22T11:10:50.926Z,34.00
2018-04-22T11:13:17.159Z,32.40
2018-04-22T11:15:43.479Z,33.40
2018-04-22T11:18:10.664Z,30.40
2018-04-22T11:20:37.038Z,30.30
2018-04-22T11:23:03.378Z,31.80
2018-04-22T11:25:29.711Z,32.60
2018-04-22T11:27:58.122Z,31.90
2018-04-22T11:30:24.599Z,31.40
2018-04-22T11:32:50.903Z,32.10
2018-04-22T11:35:17.211Z,32.50
2018-04-22T11:37:43.525Z,32.20
2018-04-22T11:40:09.865Z,32.00
2018-04-22T11:42:36.223Z,32.20
2018-04-22T11:45:03.340Z,32.50
2018-04-22T11:47:29.655Z,32.40
2018-04-22T11:49:55.979Z,32.20
2018-04-22T11:52:23.038Z,31.70
2018-04-22T11:54:50.083Z,31.70
2018-04-22T11:57:16.404Z,31.70
2018-04-22T11:59:42.705Z,31.50
2018-04-22T12:02:09.044Z,31.70
2018-04-22T12:04:35.385Z,31.50
2018-04-22T12:07:01.727Z,31.60
2018-04-22T12:09:28.033Z,31.70
2018-04-22T12:11:54.386Z,31.30
2018-04-22T12:14:20.752Z,30.00
2018-04-22T12:16:47.870Z,31.00
2018-04-22T12:19:14.193Z,30.90
2018-04-22T12:21:40.507Z,31.00
2018-04-22T12:24:06.842Z,30.80
2018-04-22T12:26:33.171Z,30.80
2018-04-22T12:29:00.173Z,31.70
2018-04-22T12:31:26.497Z,31.30
2018-04-22T12:33:52.816Z,31.90
2018-04-22T12:36:19.941Z,30.80
2018-04-22T12:38:46.254Z,30.70
2018-04-22T12:41:12.535Z,31.80
2018-04-22T12:43:38.868Z,30.70
2018-04-22T12:46:05.215Z,30.30
2018-04-22T12:48:31.631Z,30.80
2018-04-22T12:50:57.978Z,30.70
2018-04-22T12:53:24.366Z,30.50
2018-04-22T12:55:50.680Z,29.90
2018-04-22T12:58:16.976Z,29.80
2018-04-22T13:00:43.306Z,29.90
2018-04-22T13:03:10.462Z,31.40
2018-04-22T13:05:36.822Z,31.40
2018-04-22T13:08:03.926Z,29.40
2018-04-22T13:10:30.281Z,29.40
2018-04-22T13:12:56.644Z,29.50
2018-04-22T13:15:22.950Z,29.60
2018-04-22T13:17:49.302Z,28.90
2018-04-22T13:20:15.675Z,29.10
2018-04-22T13:22:41.991Z,27.70
2018-04-22T13:25:08.295Z,28.70
2018-04-22T13:27:35.309Z,28.50
2018-04-22T13:30:01.595Z,28.50
2018-04-22T13:32:27.986Z,28.90
2018-04-22T13:34:54.271Z,29.10
2018-04-22T13:37:20.592Z,29.90
2018-04-22T13:39:46.910Z,29.80
2018-04-22T13:42:13.295Z,29.40
2018-04-22T13:44:40.424Z,29.40
2018-04-22T13:47:06.855Z,29.30
2018-04-22T13:49:33.259Z,28.90
2018-04-22T13:52:00.427Z,29.30
2018-04-22T13:54:26.831Z,29.30
2018-04-22T13:56:53.210Z,28.90
2018-04-22T13:59:20.307Z,29.20
2018-04-22T14:01:46.632Z,29.20
2018-04-22T14:04:13.007Z,29.20
2018-04-22T14:06:39.343Z,28.90
2018-04-22T14:09:05.667Z,28.60
2018-04-22T14:11:31.974Z,28.80
2018-04-22T14:13:58.263Z,29.90
2018-04-22T14:16:24.637Z,28.00
2018-04-22T14:18:50.974Z,27.70
2018-04-22T14:21:17.381Z,28.50
2018-04-22T14:23:45.447Z,27.50
2018-04-22T14:26:11.911Z,27.80
2018-04-22T14:28:38.286Z,28.40
2018-04-22T14:31:05.394Z,28.10
2018-04-22T14:33:32.469Z,27.50
2018-04-22T14:35:58.781Z,27.40
2018-04-22T14:38:25.189Z,27.50
2018-04-22T14:40:51.560Z,28.00
2018-04-22T14:43:17.965Z,27.90
2018-04-22T14:46:00.229Z,28.50
2018-04-22T14:48:27.495Z,29.10
2018-04-22T14:50:53.830Z,29.00
2018-04-22T14:53:20.123Z,29.60
2018-04-22T14:55:46.463Z,30.00
2018-04-22T14:58:13.238Z,30.00
2018-04-22T15:00:39.513Z,29.90
2018-04-22T15:03:05.837Z,30.40
2018-04-22T15:05:32.126Z,30.00
2018-04-22T15:07:59.175Z,30.60
2018-04-22T15:10:26.311Z,30.00
2018-04-22T15:12:52.702Z,29.80
2018-04-22T15:15:19.122Z,29.50
2018-04-22T15:17:45.426Z,29.60
2018-04-22T15:20:11.802Z,30.00
2018-04-22T15:22:38.157Z,30.10
2018-04-22T15:25:04.530Z,29.80
2018-04-22T15:27:30.883Z,31.20
2018-04-22T15:29:57.215Z,30.80
2018-04-22T15:32:23.585Z,30.40
2018-04-22T15:34:49.884Z,31.10
2018-04-22T15:37:17.009Z,30.90
2018-04-22T15:39:43.340Z,30.80
2018-04-22T15:42:09.682Z,31.20
2018-04-22T15:44:36.114Z,31.50
2018-04-22T15:47:02.503Z,33.10
2018-04-22T15:49:28.896Z,32.60
2018-04-22T15:51:55.262Z,32.00
2018-04-22T15:54:21.781Z,32.90
2018-04-22T15:56:48.115Z,32.80
2018-04-22T15:59:14.452Z,33.60
2018-04-22T16:01:42.491Z,32.60
2018-04-22T16:04:08.861Z,32.60
2018-04-22T16:06:35.214Z,32.50
2018-04-22T16:09:01.551Z,31.50
2018-04-22T16:11:27.980Z,31.70
2018-04-22T16:13:54.316Z,32.60
2018-04-22T16:16:20.772Z,33.00
2018-04-22T16:18:47.228Z,32.80
2018-04-22T16:21:13.611Z,32.00
2018-04-22T16:23:39.942Z,32.00
2018-04-22T16:26:07.016Z,32.40
2018-04-22T16:28:33.433Z,32.30
2018-04-22T16:31:00.484Z,32.30
2018-04-22T16:33:26.831Z,32.30
2018-04-22T16:35:53.956Z,32.50
2018-04-22T16:38:20.287Z,32.40
2018-04-22T16:40:46.663Z,33.20
2018-04-22T16:43:13.067Z,33.20
2018-04-22T16:45:39.412Z,33.80
2018-04-22T16:48:05.772Z,33.90
2018-04-22T16:50:32.086Z,34.90
2018-04-22T16:52:58.468Z,34.90
2018-04-22T16:55:35.028Z,34.70
2018-04-22T16:58:01.492Z,35.40
2018-04-22T17:00:27.837Z,35.30
2018-04-22T17:02:54.323Z,36.30
2018-04-22T17:05:20.698Z,36.50
2018-04-22T17:07:47.743Z,36.40
2018-04-22T17:10:14.811Z,36.70
2018-04-22T17:12:41.145Z,36.60
2018-04-22T17:15:08.214Z,37.10
2018-04-22T17:17:34.552Z,37.20
2018-04-22T17:20:01.664Z,37.90
2018-04-22T17:22:28.064Z,37.80
2018-04-22T17:24:54.378Z,38.30
2018-04-22T17:27:20.731Z,38.60
2018-04-22T17:29:47.859Z,39.50
2018-04-22T17:32:14.209Z,39.40
2018-04-22T17:34:47.637Z,39.90
2018-04-22T17:37:13.974Z,40.10
2018-04-22T17:39:41.149Z,40.80
2018-04-22T17:42:07.485Z,40.80
2018-04-22T17:44:33.854Z,41.10
2018-04-22T17:47:00.171Z,41.40
2018-04-22T17:49:26.564Z,41.80
2018-04-22T17:51:52.911Z,42.30
2018-04-22T17:54:19.978Z,43.10
2018-04-22T17:56:47.404Z,43.00
2018-04-22T17:59:14.488Z,43.70
2018-04-22T18:01:40.981Z,43.70
2018-04-22T18:04:07.266Z,44.20
2018-04-22T18:06:34.383Z,45.30
2018-04-22T18:09:00.747Z,45.30
2018-04-22T18:11:27.080Z,45.80
2018-04-22T18:13:53.374Z,46.30
2018-04-22T18:16:19.768Z,46.40
2018-04-22T18:18:46.960Z,46.70
2018-04-22T18:21:14.221Z,47.20
2018-04-22T18:23:41.262Z,47.80
2018-04-22T18:26:07.602Z,47.70
2018-04-22T18:28:34.041Z,48.60
2018-04-22T18:31:00.438Z,48.50
2018-04-22T18:33:26.693Z,48.80
2018-04-22T18:35:52.993Z,49.70
2018-04-22T18:38:20.005Z,50.40
2018-04-22T18:40:46.331Z,51.00
2018-04-22T18:43:12.749Z,50.60
2018-04-22T18:45:39.905Z,51.00
2018-04-22T18:48:06.998Z,51.40
2018-04-22T18:50:33.302Z,51.30
2018-04-22T18:53:00.404Z,52.10
2018-04-22T18:55:26.725Z,52.10
2018-04-22T18:57:53.031Z,52.40
2018-04-22T19:00:20.108Z,53.60
2018-04-22T19:02:46.404Z,53.60
2018-04-22T19:05:12.819Z,54.40
2018-04-22T19:07:39.889Z,55.40
2018-04-22T19:10:06.186Z,55.30
2018-04-22T19:12:32.465Z,55.30
2018-04-22T19:14:58.857Z,55.70
2018-04-22T19:17:25.155Z,56.00
2018-04-22T19:19:51.569Z,56.10
2018-04-22T19:22:18.653Z,56.90
2018-04-22T19:24:44.978Z,56.90
2018-04-22T19:30:05.229Z,57.10
2018-04-22T19:32:33.588Z,57.70
2018-04-22T19:35:00.141Z,57.20
2018-04-22T19:37:26.486Z,57.20
2018-04-22T19:39:52.825Z,57.10
2018-04-22T19:42:19.166Z,56.90
2018-04-22T19:44:46.240Z,57.30
2018-04-22T19:47:12.678Z,57.30
2018-04-22T19:49:39.939Z,57.80
2018-04-22T19:52:06.355Z,57.90
2018-04-22T19:54:33.901Z,58.00
2018-04-22T19:57:00.256Z,57.80
2018-04-22T19:59:26.796Z,57.90
2018-04-22T20:01:53.145Z,58.40
2018-04-22T20:04:19.471Z,57.70
2018-04-22T20:06:45.831Z,57.00
2018-04-22T20:09:12.177Z,56.90
2018-04-22T20:11:39.286Z,56.00
2018-04-22T20:14:05.643Z,56.00
2018-04-22T20:16:32.706Z,55.50
2018-04-22T20:18:59.754Z,55.80
2018-04-22T20:21:26.066Z,55.40
2018-04-22T20:23:52.444Z,55.60
2018-04-22T20:26:18.810Z,56.00
2018-04-22T20:28:45.912Z,55.60
2018-04-22T20:31:12.214Z,55.50
2018-04-22T20:33:38.664Z,55.80
2018-04-22T20:36:05.724Z,56.00
2018-04-22T20:38:32.846Z,56.50
2018-04-22T20:40:59.940Z,56.70
2018-04-22T20:43:27.024Z,56.20
2018-04-22T20:45:53.455Z,56.10
2018-04-22T20:48:20.571Z,55.10
2018-04-22T20:50:46.913Z,55.10
2018-04-22T20:53:13.289Z,55.30
2018-04-22T20:55:40.415Z,55.80
2018-04-22T20:58:06.794Z,55.80
2018-04-22T21:00:33.843Z,56.30
2018-04-22T21:03:01.725Z,56.80
2018-04-22T21:05:28.045Z,56.70
2018-04-22T21:07:54.363Z,57.00
2018-04-22T21:10:20.725Z,56.60
2018-04-22T21:12:47.021Z,57.10
2018-04-22T21:15:14.141Z,56.20
2018-04-22T21:17:40.487Z,56.20
2018-04-22T21:20:06.803Z,56.10
2018-04-22T21:22:33.090Z,56.20
2018-04-22T21:24:59.469Z,56.40
2018-04-22T21:27:25.729Z,56.50
2018-04-22T21:29:52.316Z,56.50
2018-04-22T21:32:18.628Z,56.40
2018-04-22T21:34:44.951Z,57.20
2018-04-22T21:37:11.362Z,57.50
2018-04-22T21:39:38.470Z,56.90
2018-04-22T21:42:04.763Z,56.90
2018-04-22T21:44:31.826Z,57.10
2018-04-22T21:46:58.119Z,57.00
2018-04-22T21:49:24.488Z,56.30
2018-04-22T21:51:52.850Z,56.80
2018-04-22T21:54:19.158Z,56.90
2018-04-22T21:56:46.197Z,56.90
2018-04-22T21:59:12.541Z,56.90
2018-04-22T22:01:38.884Z,57.80
2018-04-22T22:04:08.416Z,57.00
2018-04-22T22:06:34.691Z,57.60
2018-04-22T22:09:01.094Z,57.20
2018-04-22T22:11:28.185Z,57.90
2018-04-22T22:13:54.451Z,57.70
2018-04-22T22:16:20.813Z,58.10
2018-04-22T22:18:47.119Z,58.40
2018-04-22T22:21:13.426Z,57.30
2018-04-22T22:23:39.752Z,57.70
2018-04-22T22:26:06.099Z,57.20
2018-04-22T22:28:32.444Z,57.50
2018-04-22T22:30:58.745Z,57.10
2018-04-22T22:33:39.941Z,57.50
2018-04-22T22:36:06.263Z,57.30
2018-04-22T22:38:32.601Z,57.70
2018-04-22T22:40:58.998Z,57.90
2018-04-22T22:43:26.077Z,57.60
2018-04-22T22:45:52.412Z,57.50
2018-04-22T22:48:18.838Z,57.40
2018-04-22T22:50:45.185Z,57.70
2018-04-22T22:53:11.917Z,57.90
2018-04-22T22:55:40.258Z,58.00
2018-04-22T22:58:06.663Z,58.10
2018-04-22T23:00:32.944Z,58.10
2018-04-22T23:03:00.029Z,58.20
2018-04-22T23:05:27.081Z,58.30
2018-04-22T23:07:57.384Z,58.60
2018-04-22T23:10:23.705Z,58.50
2018-04-22T23:12:50.990Z,60.20
2018-04-22T23:15:17.330Z,61.10
2018-04-22T23:17:43.721Z,62.00
2018-04-22T23:20:10.014Z,62.40
2018-04-22T23:22:36.300Z,63.60
2018-04-22T23:25:03.297Z,63.70
2018-04-22T23:27:29.636Z,63.70
2018-04-22T23:29:55.940Z,63.60
2018-04-22T23:32:23.023Z,63.90
2018-04-22T23:34:49.351Z,63.70
2018-04-22T23:37:16.411Z,66.00
2018-04-22T23:39:42.666Z,66.00
2018-04-22T23:42:08.978Z,65.10
2018-04-22T23:44:36.074Z,62.60
2018-04-22T23:47:05.931Z,62.50
2018-04-22T23:49:32.322Z,63.30
2018-04-22T23:51:59.388Z,62.70
2018-04-22T23:54:26.371Z,60.90
2018-04-22T23:56:52.692Z,61.00
2018-04-22T23:59:19.023Z,60.50
